Time;durP1;ratioP1;P1;durP2;ratioP2;P2;SDS_P1;SDS_P2;PMS_P1;PMS_P2;Temp;Humidity;BMP_temperature;BMP_pressure;BME280_temperature;BME280_humidity;BME280_pressure;Samples;Min_cycle;Max_cycle;Signal;HPM_P1;HPM_P2
2023/04/09 00:00:22;;;;;;;99.53;66.57;;;5.30;99.90;;;;;;4894383;29;20450;-79
2023/04/09 00:02:51;;;;;;;99.13;66.45;;;5.20;99.90;;;;;;4893350;29;20052;-77
2023/04/09 00:05:19;;;;;;;107.78;67.32;;;5.20;99.90;;;;;;4894754;29;20332;-76
2023/04/09 00:07:46;;;;;;;114.38;71.63;;;5.20;99.90;;;;;;4893586;29;20048;-75
2023/04/09 00:10:13;;;;;;;111.45;70.95;;;5.20;99.90;;;;;;4894021;29;20702;-74
2023/04/09 00:12:41;;;;;;;116.88;75.40;;;5.20;99.90;;;;;;4878060;29;20040;-74
2023/04/09 00:15:09;;;;;;;110.80;72.63;;;5.10;99.90;;;;;;4901979;29;20152;-78
2023/04/09 00:17:37;;;;;;;114.82;74.85;;;5.00;99.90;;;;;;4901596;29;20136;-78
2023/04/09 00:20:07;;;;;;;115.53;74.72;;;5.10;99.90;;;;;;4892937;29;20108;-79
2023/04/09 00:22:35;;;;;;;113.75;73.55;;;5.00;99.90;;;;;;4892846;29;20470;-73
2023/04/09 00:25:02;;;;;;;113.68;74.88;;;5.00;99.90;;;;;;4893720;29;20052;-78
2023/04/09 00:27:30;;;;;;;121.55;78.53;;;5.00;99.90;;;;;;4894598;29;20100;-76
2023/04/09 00:29:57;;;;;;;118.22;78.10;;;4.90;99.90;;;;;;4893594;29;20041;-77
2023/04/09 00:32:25;;;;;;;123.85;80.07;;;4.90;99.90;;;;;;4894451;29;20040;-78
2023/04/09 00:34:52;;;;;;;123.53;83.15;;;5.00;99.90;;;;;;4896055;29;20112;-73
2023/04/09 00:37:21;;;;;;;122.82;79.18;;;5.00;99.90;;;;;;4880338;29;20133;-78
2023/04/09 00:39:49;;;;;;;132.50;86.47;;;5.00;99.90;;;;;;4880728;29;20052;-75
2023/04/09 00:42:16;;;;;;;146.38;97.38;;;5.10;99.90;;;;;;4896468;29;20040;-78
2023/04/09 00:44:44;;;;;;;149.07;98.78;;;5.00;99.90;;;;;;4896966;29;20179;-76
2023/04/09 00:47:12;;;;;;;151.55;100.88;;;5.10;99.90;;;;;;4896676;29;20052;-78
2023/04/09 00:49:40;;;;;;;164.82;108.93;;;5.10;99.90;;;;;;4898200;29;20127;-77
2023/04/09 00:52:08;;;;;;;167.45;109.20;;;5.10;99.90;;;;;;4896618;29;20049;-79
2023/04/09 00:54:37;;;;;;;166.48;110.10;;;5.10;99.90;;;;;;4893137;29;20076;-75
2023/04/09 00:57:04;;;;;;;162.80;112.07;;;5.10;99.90;;;;;;4893929;29;20096;-75
2023/04/09 00:59:32;;;;;;;170.95;116.85;;;5.10;99.90;;;;;;4907415;29;20051;-75
2023/04/09 01:02:00;;;;;;;167.57;117.53;;;5.10;99.90;;;;;;4887945;29;20120;-74
2023/04/09 01:04:27;;;;;;;164.82;114.00;;;5.10;99.90;;;;;;4887632;29;20071;-75
2023/04/09 01:07:03;;;;;;;159.30;110.53;;;5.10;99.90;;;;;;4898734;29;20501;-76
2023/04/09 01:09:36;;;;;;;139.93;99.57;;;5.10;99.90;;;;;;4895654;29;20049;-74
2023/04/09 01:12:26;;;;;;;142.63;101.88;;;5.20;99.90;;;;;;4901279;29;20044;-73
2023/04/09 01:15:00;;;;;;;150.55;104.53;;;5.30;99.90;;;;;;4880164;29;20056;-78
2023/04/09 01:17:34;;;;;;;147.02;102.47;;;5.40;99.90;;;;;;4897289;29;20109;-75
2023/04/09 01:20:05;;;;;;;142.05;94.50;;;5.40;99.90;;;;;;4903143;29;20064;-76
2023/04/09 01:22:48;;;;;;;158.38;100.15;;;5.40;99.90;;;;;;4905819;29;20057;-77
2023/04/09 01:25:32;;;;;;;119.15;77.68;;;5.50;99.90;;;;;;4906909;29;20067;-76
2023/04/09 01:28:18;;;;;;;108.78;71.65;;;5.40;99.90;;;;;;4894001;29;20053;-74
2023/04/09 01:30:49;;;;;;;105.95;72.60;;;5.40;99.90;;;;;;4884699;29;20048;-74
2023/04/09 01:33:19;;;;;;;98.18;64.38;;;5.40;99.90;;;;;;4890271;29;20096;-77
2023/04/09 01:35:49;;;;;;;113.05;70.00;;;5.40;99.90;;;;;;4907204;29;20076;-75
2023/04/09 01:38:20;;;;;;;110.97;72.90;;;5.50;99.90;;;;;;4896308;29;20072;-74
2023/04/09 01:40:48;;;;;;;118.72;75.70;;;5.60;99.90;;;;;;4896024;29;20067;-76
2023/04/09 01:43:19;;;;;;;136.07;85.70;;;5.60;99.90;;;;;;4911455;29;20265;-76
2023/04/09 01:45:47;;;;;;;137.45;86.90;;;5.70;99.90;;;;;;4887562;29;20051;-75
2023/04/09 01:48:16;;;;;;;125.90;83.22;;;5.60;99.90;;;;;;4889077;29;20055;-78
2023/04/09 01:50:43;;;;;;;134.30;83.10;;;5.60;99.90;;;;;;4897886;29;20051;-76
2023/04/09 01:53:11;;;;;;;114.72;75.25;;;5.60;99.90;;;;;;4913982;29;20048;-73
2023/04/09 01:55:39;;;;;;;105.03;70.97;;;5.60;99.90;;;;;;4887359;29;20080;-76
2023/04/09 01:58:06;;;;;;;100.00;65.30;;;5.70;99.90;;;;;;4900510;29;20061;-75
2023/04/09 02:00:39;;;;;;;99.68;65.78;;;5.70;99.90;;;;;;4916459;29;20112;-76
2023/04/09 02:03:10;;;;;;;100.97;66.15;;;5.60;99.90;;;;;;4896573;29;20052;-75
2023/04/09 02:05:44;;;;;;;98.28;63.20;;;5.60;99.90;;;;;;4896053;29;20041;-76
2023/04/09 02:08:16;;;;;;;104.30;67.97;;;5.60;99.90;;;;;;4906821;29;20048;-77
2023/04/09 02:10:52;;;;;;;97.00;64.78;;;5.60;99.90;;;;;;4896147;29;20049;-76
2023/04/09 02:13:20;;;;;;;94.82;63.13;;;5.60;99.90;;;;;;4879586;29;20037;-78
2023/04/09 02:15:50;;;;;;;91.07;61.80;;;5.60;99.90;;;;;;4896760;29;20056;-76
2023/04/09 02:18:24;;;;;;;93.32;60.45;;;5.60;99.90;;;;;;4887384;23;20069;-77
2023/04/09 02:20:53;;;;;;;99.35;65.93;;;5.60;99.90;;;;;;4859597;29;20053;-76
2023/04/09 02:23:20;;;;;;;106.60;72.90;;;5.60;99.90;;;;;;4876855;29;20144;-77
2023/04/09 02:25:48;;;;;;;113.55;77.90;;;5.50;99.90;;;;;;4876491;29;20413;-76
2023/04/09 02:28:15;;;;;;;114.20;75.40;;;5.50;99.90;;;;;;4858943;29;20073;-77
2023/04/09 02:30:43;;;;;;;111.90;71.20;;;5.40;99.90;;;;;;4858582;29;20037;-76
2023/04/09 02:33:12;;;;;;;107.03;71.82;;;5.50;99.90;;;;;;4875178;29;20037;-77
2023/04/09 02:35:39;;;;;;;100.50;69.80;;;5.50;99.90;;;;;;4878501;29;20075;-75
2023/04/09 02:38:12;;;;;;;102.30;69.55;;;5.50;99.90;;;;;;4866519;29;20064;-75
2023/04/09 02:40:40;;;;;;;104.85;72.75;;;5.50;99.90;;;;;;4870547;29;20074;-76
2023/04/09 02:43:08;;;;;;;100.70;68.25;;;5.50;99.90;;;;;;4864827;29;20513;-77
2023/04/09 02:45:36;;;;;;;100.40;67.80;;;5.60;99.90;;;;;;4873516;29;20048;-74
2023/04/09 02:48:04;;;;;;;100.13;67.60;;;5.60;99.90;;;;;;4858371;29;20045;-76
2023/04/09 02:50:37;;;;;;;100.28;68.63;;;5.60;99.90;;;;;;4859033;29;20136;-77
2023/04/09 02:53:04;;;;;;;105.10;70.05;;;5.60;99.90;;;;;;4874156;29;20061;-76
2023/04/09 02:55:32;;;;;;;115.45;79.75;;;5.50;99.90;;;;;;4858247;29;20080;-74
2023/04/09 02:58:00;;;;;;;107.85;73.80;;;5.50;99.90;;;;;;4858820;29;20109;-78
2023/04/09 03:00:27;;;;;;;103.88;70.90;;;5.40;99.90;;;;;;4874644;29;20053;-75
2023/04/09 03:02:56;;;;;;;104.05;72.10;;;5.40;99.90;;;;;;4858984;29;20104;-76
2023/04/09 03:05:24;;;;;;;107.00;72.28;;;5.50;99.90;;;;;;4876780;29;20044;-77
2023/04/09 03:07:54;;;;;;;100.60;67.32;;;5.50;99.90;;;;;;4875593;29;20132;-74
2023/04/09 03:10:22;;;;;;;95.63;67.30;;;5.50;99.90;;;;;;4859785;29;20049;-78
2023/04/09 03:12:49;;;;;;;99.63;68.05;;;5.50;99.90;;;;;;4881342;29;20041;-76
2023/04/09 03:15:17;;;;;;;98.18;67.50;;;5.40;99.90;;;;;;4887045;29;20053;-76
2023/04/09 03:17:44;;;;;;;99.53;68.10;;;5.40;99.90;;;;;;4887078;29;20585;-76
2023/04/09 03:20:12;;;;;;;104.80;69.07;;;5.40;99.90;;;;;;4872675;29;20060;-75
2023/04/09 03:22:39;;;;;;;98.68;66.07;;;5.40;99.90;;;;;;4879840;29;20049;-77
2023/04/09 03:25:23;;;;;;;105.25;67.55;;;5.40;99.90;;;;;;4858310;29;20463;-75
2023/04/09 03:27:54;;;;;;;100.75;68.85;;;5.40;99.90;;;;;;4873655;29;20116;-76
2023/04/09 03:30:31;;;;;;;104.07;69.50;;;5.40;99.90;;;;;;4858158;29;20045;-76
2023/04/09 03:33:00;;;;;;;96.45;66.30;;;5.30;99.90;;;;;;4859366;29;20958;-75
2023/04/09 03:35:30;;;;;;;98.40;67.03;;;5.40;99.90;;;;;;4864133;29;20052;-76
2023/04/09 03:38:00;;;;;;;98.55;68.65;;;5.40;99.90;;;;;;4861292;29;20097;-75
2023/04/09 03:40:29;;;;;;;100.45;69.78;;;5.40;99.90;;;;;;4860092;29;20049;-75
2023/04/09 03:42:57;;;;;;;107.13;72.35;;;5.40;99.90;;;;;;4861886;29;20049;-78
2023/04/09 03:45:24;;;;;;;111.90;73.45;;;5.40;99.90;;;;;;4860275;29;20076;-77
2023/04/09 03:47:55;;;;;;;113.28;74.28;;;5.50;99.90;;;;;;4859441;29;20716;-76
2023/04/09 03:50:24;;;;;;;113.07;74.63;;;5.50;99.90;;;;;;4858720;29;20051;-75
2023/04/09 03:52:55;;;;;;;110.53;73.50;;;5.50;99.90;;;;;;4858133;29;20160;-76
2023/04/09 03:55:23;;;;;;;105.72;75.43;;;5.40;99.90;;;;;;4859927;29;20048;-75
2023/04/09 03:57:53;;;;;;;106.22;78.47;;;5.40;99.90;;;;;;4861110;29;20041;-76
2023/04/09 04:00:27;;;;;;;112.80;80.15;;;5.40;99.90;;;;;;4876575;29;20053;-76
2023/04/09 04:03:15;;;;;;;106.20;77.72;;;5.40;99.90;;;;;;4859644;29;20057;-75
2023/04/09 04:06:07;;;;;;;105.45;76.65;;;5.40;99.90;;;;;;4859003;29;20068;-77
2023/04/09 04:08:57;;;;;;;97.85;71.68;;;5.40;99.90;;;;;;4877570;29;20045;-76
2023/04/09 04:11:34;;;;;;;99.63;75.15;;;5.50;99.90;;;;;;4862635;29;20105;-77
2023/04/09 04:14:02;;;;;;;113.43;77.35;;;5.50;99.90;;;;;;4861367;29;20405;-74
2023/04/09 04:16:31;;;;;;;112.18;77.28;;;5.50;99.90;;;;;;4876793;29;20037;-77
2023/04/09 04:18:59;;;;;;;128.00;86.97;;;5.60;99.90;;;;;;4858611;29;20077;-77
2023/04/09 04:21:27;;;;;;;112.43;76.03;;;5.60;99.90;;;;;;4843228;29;20537;-76
2023/04/09 04:24:00;;;;;;;108.13;69.78;;;5.50;99.90;;;;;;4842818;29;20049;-77
2023/04/09 04:26:30;;;;;;;94.75;64.22;;;5.60;99.90;;;;;;4842122;29;20045;-75
2023/04/09 04:28:57;;;;;;;94.03;62.60;;;5.50;99.90;;;;;;4842956;29;20057;-77
2023/04/09 04:31:44;;;;;;;92.22;61.35;;;5.60;99.90;;;;;;4857776;29;20105;-78
2023/04/09 04:34:13;;;;;;;92.40;63.00;;;5.70;99.90;;;;;;4860883;29;20074;-75
2023/04/09 04:36:44;;;;;;;90.97;60.95;;;5.70;99.90;;;;;;4868213;29;20049;-76
2023/04/09 04:39:11;;;;;;;86.63;59.40;;;5.70;99.90;;;;;;4868029;29;20159;-77
2023/04/09 04:41:53;;;;;;;78.90;55.90;;;5.70;99.90;;;;;;4845906;29;20045;-77
2023/04/09 04:44:24;;;;;;;87.13;58.53;;;5.80;99.90;;;;;;4841428;29;20049;-76
2023/04/09 04:47:00;;;;;;;91.65;63.17;;;5.70;99.90;;;;;;4839628;29;20103;-77
2023/04/09 04:49:29;;;;;;;94.13;65.38;;;5.80;99.90;;;;;;4857634;29;20305;-75
2023/04/09 04:51:56;;;;;;;108.50;70.75;;;5.80;99.90;;;;;;4857824;29;20120;-77
2023/04/09 04:54:24;;;;;;;120.10;78.50;;;5.80;99.90;;;;;;4858252;29;20056;-77
2023/04/09 04:56:56;;;;;;;139.35;90.00;;;5.80;99.90;;;;;;4841474;29;20517;-76
2023/04/09 04:59:41;;;;;;;148.60;94.70;;;5.80;99.90;;;;;;4856825;29;20049;-75
2023/04/09 05:02:12;;;;;;;147.35;92.60;;;5.70;99.90;;;;;;4840970;29;20053;-75
2023/04/09 05:04:53;;;;;;;123.00;79.57;;;5.70;99.90;;;;;;4840981;29;20513;-75
2023/04/09 05:07:28;;;;;;;109.40;70.90;;;5.80;99.90;;;;;;4840775;29;20234;-78
2023/04/09 05:09:57;;;;;;;105.57;69.63;;;5.80;99.90;;;;;;4846919;29;20073;-78
2023/04/09 05:12:25;;;;;;;98.05;63.45;;;5.80;99.90;;;;;;4856018;29;20045;-77
2023/04/09 05:14:53;;;;;;;92.55;58.50;;;5.90;99.90;;;;;;4871836;29;20501;-79
2023/04/09 05:17:23;;;;;;;85.65;56.67;;;5.90;99.90;;;;;;4847454;29;20061;-77
2023/04/09 05:19:56;;;;;;;99.75;66.00;;;6.00;99.90;;;;;;4859093;29;20100;-76
2023/04/09 05:22:31;;;;;;;104.30;67.07;;;6.10;99.90;;;;;;4859788;29;20105;-75
2023/04/09 05:24:59;;;;;;;97.32;64.03;;;6.20;99.90;;;;;;4858861;29;20132;-75
2023/04/09 05:27:27;;;;;;;99.68;66.25;;;6.20;99.90;;;;;;4859494;29;20197;-76
2023/04/09 05:29:59;;;;;;;98.78;64.85;;;6.40;99.90;;;;;;4859969;29;20438;-76
2023/04/09 05:32:29;;;;;;;93.78;63.60;;;6.50;99.90;;;;;;4874084;29;20049;-76
2023/04/09 05:34:57;;;;;;;85.90;58.20;;;6.50;99.90;;;;;;4860301;29;20531;-76
2023/04/09 05:37:27;;;;;;;91.60;60.47;;;6.60;99.90;;;;;;4858673;29;20560;-77
2023/04/09 05:39:55;;;;;;;86.25;59.47;;;6.60;99.90;;;;;;4858518;29;20128;-77
2023/04/09 05:42:22;;;;;;;90.70;61.85;;;6.60;99.90;;;;;;4859132;29;20052;-75
2023/04/09 05:45:00;;;;;;;84.07;59.30;;;6.70;99.90;;;;;;4859666;29;20088;-78
2023/04/09 05:47:30;;;;;;;87.65;60.10;;;6.80;99.90;;;;;;4859993;29;20113;-78
2023/04/09 05:50:05;;;;;;;88.85;58.88;;;7.00;99.90;;;;;;4860450;29;20045;-77
2023/04/09 05:52:33;;;;;;;84.07;59.50;;;7.10;99.90;;;;;;4860308;29;20528;-76
2023/04/09 05:55:01;;;;;;;87.95;60.50;;;7.20;99.90;;;;;;4875533;29;20173;-76
2023/04/09 05:57:41;;;;;;;86.97;61.63;;;7.30;99.90;;;;;;4858555;29;20060;-77
2023/04/09 06:00:09;;;;;;;85.05;61.53;;;7.50;99.90;;;;;;4875508;29;20216;-75
2023/04/09 06:02:48;;;;;;;90.15;64.13;;;7.50;99.90;;;;;;4859317;29;20040;-75
2023/04/09 06:05:16;;;;;;;87.80;62.47;;;7.50;99.90;;;;;;4875028;29;20145;-75
2023/04/09 06:07:44;;;;;;;90.95;63.05;;;7.70;99.90;;;;;;4859457;29;20048;-76
2023/04/09 06:10:11;;;;;;;96.50;63.78;;;7.90;99.90;;;;;;4874869;29;20045;-75
2023/04/09 06:12:39;;;;;;;97.68;63.25;;;8.10;99.90;;;;;;4858389;29;20406;-75
2023/04/09 06:15:08;;;;;;;91.45;64.93;;;8.20;99.90;;;;;;4875644;29;20051;-76
2023/04/09 06:17:35;;;;;;;92.18;66.35;;;8.20;99.90;;;;;;4858640;29;20059;-74
2023/04/09 06:20:05;;;;;;;97.10;67.00;;;8.10;99.90;;;;;;4875661;29;20482;-74
2023/04/09 06:22:32;;;;;;;92.93;66.45;;;8.10;99.90;;;;;;4871249;29;20282;-74
2023/04/09 06:25:00;;;;;;;90.18;64.75;;;8.20;99.90;;;;;;4875505;29;20061;-75
2023/04/09 06:27:27;;;;;;;97.65;66.25;;;8.40;99.90;;;;;;4874437;29;20132;-76
2023/04/09 06:29:55;;;;;;;91.55;65.20;;;8.60;99.90;;;;;;4874995;29;20045;-75
2023/04/09 06:32:22;;;;;;;92.55;65.63;;;8.80;99.90;;;;;;4875519;29;20037;-76
2023/04/09 06:34:50;;;;;;;90.82;66.22;;;8.70;99.90;;;;;;4878409;29;20481;-76
2023/04/09 06:37:18;;;;;;;91.93;65.40;;;8.70;99.90;;;;;;4877297;29;20128;-74
2023/04/09 06:39:46;;;;;;;94.57;64.60;;;8.70;99.90;;;;;;4881788;29;20093;-77
2023/04/09 06:42:13;;;;;;;94.80;64.72;;;8.60;99.90;;;;;;4884539;29;21572;-75
2023/04/09 06:44:52;;;;;;;82.57;62.10;;;8.70;99.90;;;;;;4866170;29;20052;-75
2023/04/09 06:47:19;;;;;;;90.35;66.32;;;8.60;99.90;;;;;;4880296;29;20273;-75
2023/04/09 06:49:47;;;;;;;94.20;66.45;;;8.60;99.90;;;;;;4880659;29;20089;-76
2023/04/09 06:52:14;;;;;;;90.75;65.70;;;8.70;99.90;;;;;;4877136;29;20037;-74
2023/04/09 06:54:44;;;;;;;89.13;65.15;;;8.80;99.90;;;;;;4878736;29;20034;-74
2023/04/09 06:57:12;;;;;;;86.03;64.03;;;8.90;99.90;;;;;;4875705;29;20072;-76
2023/04/09 06:59:39;;;;;;;90.55;63.13;;;9.10;99.90;;;;;;4876722;29;20045;-76
2023/04/09 07:02:07;;;;;;;90.97;65.97;;;9.30;99.90;;;;;;4878439;29;20053;-77
2023/04/09 07:04:35;;;;;;;93.75;66.47;;;9.40;99.90;;;;;;4870353;29;20041;-76
2023/04/09 07:07:03;;;;;;;86.35;64.88;;;9.70;99.90;;;;;;4879946;29;20129;-75
2023/04/09 07:09:30;;;;;;;88.35;64.00;;;9.90;99.90;;;;;;4874713;29;20041;-75
2023/04/09 07:11:59;;;;;;;86.05;65.15;;;10.00;99.90;;;;;;4874738;29;20105;-74
2023/04/09 07:14:26;;;;;;;85.60;62.42;;;10.10;99.90;;;;;;4874884;29;20053;-75
2023/04/09 07:16:54;;;;;;;86.28;64.05;;;10.00;99.90;;;;;;4872564;29;20064;-75
2023/04/09 07:19:21;;;;;;;87.40;65.28;;;9.90;99.90;;;;;;4880161;29;20076;-75
2023/04/09 07:21:49;;;;;;;93.50;66.88;;;10.00;99.90;;;;;;4858590;29;20083;-74
2023/04/09 07:24:17;;;;;;;87.55;62.40;;;10.00;99.90;;;;;;4873721;29;20561;-77
2023/04/09 07:26:44;;;;;;;89.20;65.93;;;10.30;99.90;;;;;;4875788;29;20097;-75
2023/04/09 07:29:13;;;;;;;91.05;65.75;;;10.60;99.90;;;;;;4859004;29;20045;-76
2023/04/09 07:31:41;;;;;;;94.25;67.82;;;10.80;99.90;;;;;;4876266;29;20107;-75
2023/04/09 07:34:08;;;;;;;94.90;72.60;;;11.20;99.90;;;;;;4876169;29;20049;-76
2023/04/09 07:36:35;;;;;;;101.95;76.30;;;11.40;99.90;;;;;;4874435;29;20041;-77
2023/04/09 07:39:03;;;;;;;104.90;79.20;;;11.70;99.90;;;;;;4873875;29;20125;-75
2023/04/09 07:41:31;;;;;;;102.10;76.20;;;11.70;99.90;;;;;;4875366;29;20386;-76
2023/04/09 07:43:58;;;;;;;106.05;78.30;;;11.70;99.90;;;;;;4873033;29;20805;-76
2023/04/09 07:46:27;;;;;;;114.63;83.60;;;11.70;99.90;;;;;;4874132;29;20117;-76
2023/04/09 07:48:54;;;;;;;104.15;78.45;;;11.60;99.90;;;;;;4874440;29;20063;-75
2023/04/09 07:51:22;;;;;;;105.05;81.25;;;11.70;99.90;;;;;;4875147;29;20949;-75
2023/04/09 07:53:49;;;;;;;107.75;80.07;;;11.80;99.90;;;;;;4857773;29;20063;-74
2023/04/09 07:56:17;;;;;;;107.25;78.90;;;12.10;99.90;;;;;;4874030;29;20045;-74
2023/04/09 07:58:44;;;;;;;109.45;77.97;;;12.30;99.90;;;;;;4873824;29;20079;-75
2023/04/09 08:01:12;;;;;;;102.50;75.80;;;12.60;99.90;;;;;;4875189;29;20089;-74
2023/04/09 08:03:42;;;;;;;98.10;75.38;;;12.80;99.90;;;;;;4874877;29;20075;-75
2023/04/09 08:06:09;;;;;;;95.43;74.20;;;13.00;99.90;;;;;;4874894;29;20053;-76
2023/04/09 08:08:36;;;;;;;90.00;69.30;;;12.80;99.90;;;;;;4875572;29;20136;-76
2023/04/09 08:11:05;;;;;;;80.20;62.75;;;12.60;99.90;;;;;;4875202;29;20045;-75
2023/04/09 08:13:33;;;;;;;83.13;62.15;;;11.90;99.90;;;;;;4875558;29;20045;-76
2023/04/09 08:16:02;;;;;;;79.60;63.30;;;11.70;99.90;;;;;;4874420;29;20052;-75
2023/04/09 08:18:30;;;;;;;80.22;61.03;;;11.50;99.90;;;;;;4874654;29;20081;-74
2023/04/09 08:20:58;;;;;;;89.70;65.38;;;11.20;99.90;;;;;;4874005;29;20135;-75
2023/04/09 08:23:26;;;;;;;85.75;64.57;;;11.30;99.90;;;;;;4858387;29;20051;-74
2023/04/09 08:25:54;;;;;;;83.93;62.05;;;11.30;99.90;;;;;;4873872;29;20045;-76
2023/04/09 08:28:22;;;;;;;79.40;62.35;;;11.30;99.90;;;;;;4874395;29;20589;-75
2023/04/09 08:30:49;;;;;;;80.13;61.55;;;11.30;99.90;;;;;;4874007;29;20041;-75
2023/04/09 08:33:17;;;;;;;92.30;68.15;;;11.20;99.90;;;;;;4874540;29;20093;-76
2023/04/09 08:35:44;;;;;;;89.82;68.00;;;11.40;99.90;;;;;;4874621;29;20077;-75
2023/04/09 08:38:13;;;;;;;89.20;68.13;;;11.40;99.90;;;;;;4875766;29;20160;-76
2023/04/09 08:40:41;;;;;;;90.75;69.43;;;11.50;99.90;;;;;;4859238;29;20149;-75
2023/04/09 08:43:10;;;;;;;90.80;70.25;;;11.60;99.90;;;;;;4875625;29;20592;-75
2023/04/09 08:45:41;;;;;;;74.63;58.13;;;11.80;99.90;;;;;;4872920;29;20048;-74
2023/04/09 08:48:10;;;;;;;91.95;69.57;;;11.90;99.90;;;;;;4874584;29;20037;-76
2023/04/09 08:50:37;;;;;;;70.55;53.67;;;12.00;99.90;;;;;;4874941;29;20136;-76
2023/04/09 08:53:06;;;;;;;62.13;47.03;;;12.00;99.90;;;;;;4873817;29;20075;-76
2023/04/09 08:55:36;;;;;;;59.80;46.15;;;12.10;99.90;;;;;;4875978;29;20045;-74
2023/04/09 08:58:06;;;;;;;58.60;41.50;;;12.10;99.90;;;;;;4876706;29;20045;-75
2023/04/09 09:00:33;;;;;;;55.45;44.28;;;12.20;99.90;;;;;;4876182;29;20530;-75
2023/04/09 09:03:05;;;;;;;52.80;42.40;;;12.40;99.90;;;;;;4876829;29;20037;-74
2023/04/09 09:05:37;;;;;;;51.30;42.72;;;12.50;99.90;;;;;;4876899;29;20045;-74
2023/04/09 09:08:06;;;;;;;52.97;43.40;;;12.50;99.90;;;;;;4876659;29;20037;-75
2023/04/09 09:10:43;;;;;;;45.70;38.40;;;12.80;99.90;;;;;;4876654;29;20045;-75
2023/04/09 09:13:21;;;;;;;49.95;41.22;;;12.90;99.90;;;;;;4877229;29;20185;-76
2023/04/09 09:15:53;;;;;;;46.42;38.40;;;13.10;99.20;;;;;;4876947;29;20056;-75
2023/04/09 09:18:22;;;;;;;48.22;39.42;;;13.00;98.20;;;;;;4877383;29;20069;-75
2023/04/09 09:20:49;;;;;;;52.17;40.58;;;13.00;97.20;;;;;;4878380;29;20136;-75
2023/04/09 09:23:34;;;;;;;51.42;41.70;;;12.90;97.50;;;;;;4877350;29;20079;-75
2023/04/09 09:26:12;;;;;;;47.50;38.58;;;12.80;99.90;;;;;;4861949;29;20116;-75
2023/04/09 09:28:40;;;;;;;49.03;40.67;;;13.20;97.90;;;;;;4879198;29;20254;-75
2023/04/09 09:31:11;;;;;;;55.38;44.47;;;13.30;95.00;;;;;;4878731;29;20541;-75
2023/04/09 09:33:39;;;;;;;52.13;43.17;;;13.60;93.10;;;;;;4878194;29;20067;-75
2023/04/09 09:36:08;;;;;;;44.65;38.40;;;13.80;91.20;;;;;;4880053;29;20041;-75
2023/04/09 09:38:50;;;;;;;49.97;42.50;;;14.00;88.90;;;;;;4877759;29;20049;-75
2023/04/09 09:41:19;;;;;;;42.20;36.53;;;14.00;86.90;;;;;;4867618;29;20045;-75
2023/04/09 09:43:47;;;;;;;46.15;37.53;;;13.70;85.30;;;;;;4870817;29;20053;-76
2023/04/09 09:46:16;;;;;;;47.25;38.38;;;13.60;85.50;;;;;;4886647;29;20053;-75
2023/04/09 09:48:45;;;;;;;44.50;37.63;;;13.70;84.70;;;;;;4877259;29;20482;-75
2023/04/09 09:51:14;;;;;;;38.47;33.55;;;13.70;84.30;;;;;;4877240;29;20041;-75
2023/04/09 09:53:45;;;;;;;42.67;34.60;;;13.50;83.20;;;;;;4877882;29;20052;-74
2023/04/09 09:56:18;;;;;;;44.30;36.30;;;13.20;83.50;;;;;;4860033;29;20549;-75
2023/04/09 09:58:52;;;;;;;45.03;37.50;;;13.50;83.60;;;;;;4877491;29;20045;-76
2023/04/09 10:01:22;;;;;;;45.60;36.60;;;13.70;82.60;;;;;;4860678;29;20417;-76
2023/04/09 10:03:52;;;;;;;48.63;40.80;;;13.70;82.50;;;;;;4877574;29;20454;-74
2023/04/09 10:06:19;;;;;;;45.47;35.38;;;13.70;82.10;;;;;;4878365;29;20080;-75
2023/04/09 10:08:49;;;;;;;46.60;36.72;;;13.40;82.50;;;;;;4879517;29;20102;-74
2023/04/09 10:11:18;;;;;;;54.55;37.50;;;12.90;84.30;;;;;;4875181;29;20059;-78
2023/04/09 10:13:51;;;;;;;46.88;36.33;;;12.30;90.20;;;;;;4876447;29;20045;-74
2023/04/09 10:16:19;;;;;;;49.70;40.15;;;11.70;99.90;;;;;;4858731;29;20045;-75
2023/04/09 10:18:46;;;;;;;62.85;45.67;;;11.50;99.90;;;;;;4875649;29;20065;-75
2023/04/09 10:21:25;;;;;;;51.95;38.05;;;11.40;99.90;;;;;;4858616;29;20475;-76
2023/04/09 10:23:54;;;;;;;54.40;39.47;;;11.30;99.90;;;;;;4876924;29;20041;-75
2023/04/09 10:26:26;;;;;;;49.42;37.35;;;11.20;99.90;;;;;;4875882;29;20049;-75
2023/04/09 10:29:06;;;;;;;55.03;41.58;;;11.20;99.90;;;;;;4876154;29;20056;-77
2023/04/09 10:31:53;;;;;;;47.20;35.67;;;11.20;99.90;;;;;;4876231;29;20052;-75
2023/04/09 10:34:23;;;;;;;48.63;40.05;;;11.10;99.90;;;;;;4875314;29;20045;-74
2023/04/09 10:36:53;;;;;;;51.40;39.70;;;11.00;99.90;;;;;;4875598;29;20049;-76
2023/04/09 10:39:21;;;;;;;55.13;42.90;;;11.10;99.90;;;;;;4876464;29;20056;-76
2023/04/09 10:41:49;;;;;;;60.85;43.92;;;11.10;99.90;;;;;;4876078;29;20047;-75
2023/04/09 10:44:26;;;;;;;59.22;43.08;;;11.10;99.90;;;;;;4875823;29;20047;-78
2023/04/09 10:46:54;;;;;;;59.42;45.67;;;11.10;99.90;;;;;;4879545;29;20072;-75
2023/04/09 10:49:23;;;;;;;50.33;39.40;;;11.10;99.90;;;;;;4877376;29;20053;-74
2023/04/09 10:51:55;;;;;;;53.88;40.20;;;11.00;99.90;;;;;;4876812;29;20052;-77
2023/04/09 10:54:48;;;;;;;59.50;44.67;;;11.10;99.90;;;;;;4875721;29;20049;-73
2023/04/09 10:57:17;;;;;;;64.70;48.40;;;11.00;99.90;;;;;;4875842;29;20052;-75
2023/04/09 10:59:48;;;;;;;58.85;45.38;;;11.00;99.90;;;;;;4875794;29;20259;-75
2023/04/09 11:02:40;;;;;;;57.08;41.55;;;11.00;99.90;;;;;;4875338;29;20049;-73
2023/04/09 11:05:19;;;;;;;59.33;43.78;;;11.00;99.90;;;;;;4874693;29;20144;-75
2023/04/09 11:07:53;;;;;;;60.33;45.25;;;10.90;99.90;;;;;;4874473;29;20520;-74
2023/04/09 11:10:21;;;;;;;62.72;46.45;;;10.70;99.90;;;;;;4873202;29;20071;-74
2023/04/09 11:12:49;;;;;;;59.13;43.75;;;10.70;99.90;;;;;;4876626;29;20041;-74
2023/04/09 11:15:19;;;;;;;63.65;49.00;;;10.70;99.90;;;;;;4878023;29;20615;-75
2023/04/09 11:17:48;;;;;;;62.75;47.85;;;10.60;99.90;;;;;;4874686;29;20085;-75
2023/04/09 11:20:17;;;;;;;64.05;49.33;;;10.70;99.90;;;;;;4875893;29;20104;-76
2023/04/09 11:22:45;;;;;;;65.30;50.75;;;10.60;99.90;;;;;;4876546;29;20045;-74
2023/04/09 11:25:19;;;;;;;66.53;50.70;;;10.70;99.90;;;;;;4876142;29;20493;-75
2023/04/09 11:27:47;;;;;;;63.75;48.10;;;10.80;99.90;;;;;;4874354;29;20129;-76
2023/04/09 11:30:14;;;;;;;63.15;45.05;;;10.80;99.90;;;;;;4874300;29;20482;-74
2023/04/09 11:32:44;;;;;;;58.97;44.72;;;11.00;99.90;;;;;;4877811;29;20040;-75
2023/04/09 11:35:15;;;;;;;58.20;44.15;;;11.10;99.90;;;;;;4875156;29;20508;-75
2023/04/09 11:37:44;;;;;;;65.25;49.20;;;11.20;99.90;;;;;;4873963;29;20053;-73
2023/04/09 11:40:19;;;;;;;62.53;49.20;;;11.10;99.90;;;;;;4874919;29;20079;-74
2023/04/09 11:42:49;;;;;;;60.10;46.38;;;11.20;99.90;;;;;;4873821;29;20047;-75
2023/04/09 11:45:17;;;;;;;65.95;50.35;;;11.20;99.90;;;;;;4877083;29;20059;-75
2023/04/09 11:47:47;;;;;;;59.92;47.55;;;11.20;99.90;;;;;;4879244;29;20080;-75
2023/04/09 11:50:16;;;;;;;63.28;48.03;;;11.20;99.90;;;;;;4876571;29;20037;-75
2023/04/09 11:52:44;;;;;;;50.97;40.08;;;11.10;99.90;;;;;;4875859;29;20090;-75
2023/04/09 11:55:13;;;;;;;58.85;46.78;;;11.10;99.90;;;;;;4858930;29;20049;-75
2023/04/09 11:57:43;;;;;;;59.72;47.72;;;11.10;99.90;;;;;;4874770;29;20383;-75
2023/04/09 12:00:13;;;;;;;60.72;47.00;;;11.00;99.90;;;;;;4875048;29;20060;-74
2023/04/09 12:02:42;;;;;;;63.30;46.67;;;11.00;99.90;;;;;;4875637;29;20037;-75
2023/04/09 12:05:13;;;;;;;65.80;50.25;;;11.00;99.90;;;;;;4876425;29;20055;-75
2023/04/09 12:07:40;;;;;;;61.83;46.35;;;10.90;99.90;;;;;;4874215;29;20049;-75
2023/04/09 12:10:10;;;;;;;61.92;49.35;;;10.80;99.90;;;;;;4874266;29;20045;-75
2023/04/09 12:12:42;;;;;;;79.65;55.88;;;10.90;99.90;;;;;;4874387;29;20382;-76
2023/04/09 12:15:23;;;;;;;63.15;49.22;;;10.90;99.90;;;;;;4874566;29;20076;-77
2023/04/09 12:17:53;;;;;;;60.05;46.28;;;10.90;99.90;;;;;;4858317;29;20065;-74
2023/04/09 12:20:33;;;;;;;69.97;55.35;;;10.80;99.90;;;;;;4874110;29;20041;-75
2023/04/09 12:23:02;;;;;;;63.08;49.80;;;10.90;99.90;;;;;;4876414;29;20450;-74
2023/04/09 12:25:31;;;;;;;66.78;54.28;;;11.10;99.90;;;;;;4872967;29;20041;-74
2023/04/09 12:27:58;;;;;;;57.95;46.28;;;11.10;99.90;;;;;;4873851;29;20573;-74
2023/04/09 12:30:26;;;;;;;57.08;43.55;;;11.20;99.90;;;;;;4867398;29;20057;-74
2023/04/09 12:32:54;;;;;;;57.03;46.67;;;11.30;99.90;;;;;;4877210;29;20037;-75
2023/04/09 12:35:22;;;;;;;53.13;41.95;;;11.20;99.90;;;;;;4878046;29;20041;-73
2023/04/09 12:37:51;;;;;;;61.03;46.72;;;11.30;99.90;;;;;;4877365;29;20140;-73
2023/04/09 12:40:20;;;;;;;56.03;42.38;;;11.40;99.90;;;;;;4876655;29;20045;-75
2023/04/09 12:42:48;;;;;;;53.28;44.47;;;11.50;99.90;;;;;;4877654;29;20465;-75